N516G KVAY-KDXR
Flight info
| Callsign | N516G |
|---|---|
| Flight time | N/A |
| Altitude | 2000 |
| Route | KVAY/26 RBV HUDSON CORRIDOR CMK KDXR/26 |
| Aircraft | BN2P/L-SFG/C |
Departure
| Time | 2026-04-19 19:34 |
|---|---|
| Airport | South Jersey Regional Airport (KVAY) |
Arrival
| Time | N/A |
|---|---|
| Airport | Danbury Municipal Airport (KDXR) |
| Time | Latitude | Longitude | Altitude | Speed | Heading |
|---|---|---|---|---|---|
| 2026-04-19 19:23 | 39.94187 | -74.84328 | 54 ft | 0 kts | 257° |
| 2026-04-19 19:30 | 39.94179 | -74.84354 | 54 ft | 5 kts | 262° |
| 2026-04-19 19:30 | 39.94192 | -74.84380 | 54 ft | 2 kts | 299° |
| 2026-04-19 19:30 | 39.94463 | -74.83962 | 55 ft | 0 kts | 250° |
| 2026-04-19 19:31 | 39.94319 | -74.84000 | 59 ft | 0 kts | 325° |
| 2026-04-19 19:31 | 39.94330 | -74.84010 | 54 ft | 7 kts | 326° |
| 2026-04-19 19:31 | 39.94376 | -74.84036 | 54 ft | 0 kts | 343° |
| 2026-04-19 19:32 | 39.94378 | -74.84037 | 54 ft | 3 kts | 343° |
| 2026-04-19 19:32 | 39.94421 | -74.84048 | 55 ft | 5 kts | 3° |
| 2026-04-19 19:32 | 39.94447 | -74.83999 | 52 ft | 12 kts | 71° |
| 2026-04-19 19:32 | 39.94468 | -74.83940 | 55 ft | 2 kts | 2° |
| 2026-04-19 19:33 | 39.94474 | -74.83952 | 52 ft | 3 kts | 248° |
| 2026-04-19 19:33 | 39.94458 | -74.83989 | 54 ft | 9 kts | 248° |
| 2026-04-19 19:33 | 39.94341 | -74.84399 | 67 ft | 87 kts | 250° |
| 2026-04-19 19:33 | 39.94094 | -74.85266 | 202 ft | 115 kts | 249° |
| 2026-04-19 19:34 | 39.93461 | -74.85892 | 424 ft | 126 kts | 182° |
| 2026-04-19 19:34 | 39.92822 | -74.85205 | 690 ft | 129 kts | 105° |
| 2026-04-19 19:34 | 39.92895 | -74.84067 | 961 ft | 129 kts | 71° |
| 2026-04-19 19:34 | 39.93214 | -74.82947 | 1208 ft | 129 kts | 69° |
| 2026-04-19 19:35 | 39.93538 | -74.81860 | 1489 ft | 127 kts | 68° |
| 2026-04-19 19:35 | 39.93855 | -74.80803 | 1689 ft | 126 kts | 68° |
| 2026-04-19 19:35 | 39.94176 | -74.79742 | 1865 ft | 126 kts | 68° |
| 2026-04-19 19:35 | 39.94494 | -74.78670 | 1947 ft | 132 kts | 69° |
| 2026-04-19 19:36 | 39.94818 | -74.77540 | 1937 ft | 136 kts | 69° |
| 2026-04-19 19:36 | 39.95149 | -74.76388 | 1938 ft | 137 kts | 69° |
| 2026-04-19 19:36 | 39.95485 | -74.75222 | 1934 ft | 136 kts | 69° |
| 2026-04-19 19:36 | 39.95810 | -74.74092 | 1928 ft | 131 kts | 69° |
| 2026-04-19 19:37 | 39.96125 | -74.72999 | 1936 ft | 124 kts | 69° |
| 2026-04-19 19:37 | 39.96422 | -74.71964 | 1919 ft | 119 kts | 69° |
| 2026-04-19 19:37 | 39.96721 | -74.70929 | 1929 ft | 125 kts | 69° |
| 2026-04-19 19:37 | 39.97149 | -74.69957 | 1921 ft | 125 kts | 40° |
| 2026-04-19 19:38 | 39.97844 | -74.69301 | 1938 ft | 127 kts | 35° |
| 2026-04-19 19:38 | 39.98559 | -74.68603 | 1936 ft | 130 kts | 36° |
| 2026-04-19 19:38 | 39.99272 | -74.67905 | 1932 ft | 127 kts | 36° |
| 2026-04-19 19:38 | 39.99980 | -74.67212 | 1925 ft | 128 kts | 36° |
| 2026-04-19 19:39 | 40.00686 | -74.66524 | 1934 ft | 126 kts | 36° |
| 2026-04-19 19:39 | 40.01464 | -74.66028 | 1923 ft | 124 kts | 18° |
| 2026-04-19 19:39 | 40.02275 | -74.65653 | 1924 ft | 124 kts | 19° |
| 2026-04-19 19:39 | 40.03088 | -74.65265 | 1927 ft | 126 kts | 19° |
| 2026-04-19 19:40 | 40.03905 | -74.64877 | 1926 ft | 125 kts | 19° |
| 2026-04-19 19:40 | 40.04713 | -74.64495 | 1934 ft | 127 kts | 19° |
| 2026-04-19 19:40 | 40.05537 | -74.64106 | 1934 ft | 126 kts | 19° |
| 2026-04-19 19:40 | 40.06358 | -74.63720 | 1926 ft | 125 kts | 19° |
| 2026-04-19 19:41 | 40.07173 | -74.63334 | 1933 ft | 125 kts | 19° |
| 2026-04-19 19:41 | 40.07995 | -74.62947 | 1937 ft | 127 kts | 19° |
| 2026-04-19 19:41 | 40.08822 | -74.62555 | 1931 ft | 127 kts | 19° |
| 2026-04-19 19:41 | 40.09628 | -74.62085 | 1933 ft | 128 kts | 29° |
| 2026-04-19 19:42 | 40.10351 | -74.61436 | 1959 ft | 123 kts | 34° |
| 2026-04-19 19:42 | 40.11056 | -74.60769 | 2003 ft | 130 kts | 34° |
| 2026-04-19 19:42 | 40.11806 | -74.60068 | 2005 ft | 134 kts | 34° |
| 2026-04-19 19:42 | 40.12543 | -74.59377 | 2007 ft | 131 kts | 34° |
| 2026-04-19 19:43 | 40.13277 | -74.58687 | 1995 ft | 129 kts | 35° |
| 2026-04-19 19:43 | 40.14006 | -74.58002 | 1994 ft | 129 kts | 35° |
| 2026-04-19 19:43 | 40.14723 | -74.57311 | 1990 ft | 128 kts | 38° |
| 2026-04-19 19:43 | 40.15400 | -74.56558 | 1995 ft | 128 kts | 39° |
| 2026-04-19 19:44 | 40.16073 | -74.55801 | 1996 ft | 128 kts | 40° |
| 2026-04-19 19:44 | 40.16727 | -74.55017 | 2002 ft | 127 kts | 44° |
| 2026-04-19 19:44 | 40.17357 | -74.54200 | 2002 ft | 128 kts | 44° |
| 2026-04-19 19:44 | 40.17992 | -74.53382 | 2001 ft | 128 kts | 44° |
| 2026-04-19 19:45 | 40.18630 | -74.52561 | 1998 ft | 128 kts | 44° |
| 2026-04-19 19:45 | 40.19255 | -74.51755 | 2006 ft | 128 kts | 44° |
| 2026-04-19 19:45 | 40.19894 | -74.50927 | 2006 ft | 130 kts | 44° |
| 2026-04-19 19:45 | 40.20536 | -74.50101 | 2000 ft | 129 kts | 44° |
| 2026-04-19 19:46 | 40.21174 | -74.49285 | 1997 ft | 128 kts | 44° |
| 2026-04-19 19:46 | 40.21806 | -74.48468 | 1996 ft | 127 kts | 44° |
| 2026-04-19 19:46 | 40.22433 | -74.47653 | 1994 ft | 127 kts | 45° |
| 2026-04-19 19:46 | 40.23029 | -74.46800 | 1993 ft | 127 kts | 48° |
| 2026-04-19 19:47 | 40.23614 | -74.45933 | 2000 ft | 128 kts | 47° |
| 2026-04-19 19:47 | 40.24206 | -74.45061 | 1994 ft | 128 kts | 47° |
| 2026-04-19 19:47 | 40.24797 | -74.44190 | 2001 ft | 128 kts | 47° |
| 2026-04-19 19:47 | 40.25379 | -74.43326 | 1999 ft | 129 kts | 47° |
| 2026-04-19 19:48 | 40.25974 | -74.42444 | 2002 ft | 130 kts | 48° |
| 2026-04-19 19:48 | 40.26576 | -74.41555 | 2004 ft | 130 kts | 47° |
| 2026-04-19 19:48 | 40.27174 | -74.40673 | 1996 ft | 129 kts | 47° |
| 2026-04-19 19:48 | 40.27764 | -74.39799 | 1993 ft | 128 kts | 48° |
| 2026-04-19 19:49 | 40.28353 | -74.38929 | 1992 ft | 128 kts | 47° |
| 2026-04-19 19:49 | 40.28945 | -74.38058 | 1997 ft | 128 kts | 47° |
| 2026-04-19 19:49 | 40.29540 | -74.37189 | 1994 ft | 127 kts | 47° |
| 2026-04-19 19:49 | 40.30129 | -74.36314 | 2000 ft | 129 kts | 48° |
| 2026-04-19 19:50 | 40.30722 | -74.35432 | 2000 ft | 129 kts | 47° |
| 2026-04-19 19:50 | 40.31338 | -74.34579 | 1997 ft | 128 kts | 43° |
| 2026-04-19 19:50 | 40.31982 | -74.33799 | 1999 ft | 128 kts | 41° |
| 2026-04-19 19:50 | 40.32642 | -74.33006 | 1998 ft | 129 kts | 41° |
| 2026-04-19 19:51 | 40.33301 | -74.32213 | 2005 ft | 130 kts | 41° |
| 2026-04-19 19:51 | 40.33965 | -74.31415 | 2000 ft | 129 kts | 41° |
| 2026-04-19 19:51 | 40.34622 | -74.30626 | 2005 ft | 128 kts | 41° |
| 2026-04-19 19:51 | 40.35282 | -74.29836 | 1998 ft | 128 kts | 41° |
| 2026-04-19 19:52 | 40.35938 | -74.29049 | 2004 ft | 128 kts | 41° |
| 2026-04-19 19:52 | 40.36600 | -74.28252 | 2004 ft | 130 kts | 42° |
| 2026-04-19 19:52 | 40.37262 | -74.27455 | 1999 ft | 129 kts | 41° |
| 2026-04-19 19:52 | 40.37927 | -74.26660 | 2001 ft | 129 kts | 41° |
| 2026-04-19 19:53 | 40.38581 | -74.25878 | 1999 ft | 129 kts | 41° |
| 2026-04-19 19:53 | 40.39239 | -74.25089 | 1996 ft | 128 kts | 41° |
| 2026-04-19 19:53 | 40.39891 | -74.24305 | 2001 ft | 127 kts | 41° |
| 2026-04-19 19:53 | 40.40549 | -74.23519 | 2001 ft | 129 kts | 41° |
| 2026-04-19 19:54 | 40.41212 | -74.22721 | 2003 ft | 130 kts | 41° |
| 2026-04-19 19:54 | 40.41873 | -74.21926 | 1999 ft | 128 kts | 42° |
| 2026-04-19 19:54 | 40.42530 | -74.21138 | 2003 ft | 129 kts | 41° |
| 2026-04-19 19:54 | 40.43194 | -74.20344 | 2004 ft | 129 kts | 41° |
| 2026-04-19 19:55 | 40.43859 | -74.19546 | 2007 ft | 130 kts | 41° |
| 2026-04-19 19:55 | 40.44520 | -74.18755 | 2003 ft | 130 kts | 41° |
| 2026-04-19 19:55 | 40.45188 | -74.17954 | 2009 ft | 131 kts | 41° |
| 2026-04-19 19:55 | 40.45861 | -74.17148 | 2002 ft | 130 kts | 41° |
| 2026-04-19 19:56 | 40.46527 | -74.16350 | 1997 ft | 129 kts | 41° |
| 2026-04-19 19:56 | 40.47187 | -74.15559 | 1994 ft | 128 kts | 41° |
| 2026-04-19 19:56 | 40.47844 | -74.14772 | 1993 ft | 128 kts | 41° |
| 2026-04-19 19:56 | 40.48500 | -74.13985 | 1992 ft | 128 kts | 41° |